Time;durP1;ratioP1;P1;durP2;ratioP2;P2;SDS_P1;SDS_P2;PMS_P1;PMS_P2;Temp;Humidity;BMP_temperature;BMP_pressure;BME280_temperature;BME280_humidity;BME280_pressure;Samples;Min_cycle;Max_cycle;Signal;HPM_P1;HPM_P2
2023/12/04 00:02:21;;;;;;;48.77;23.43;;;-3.30;99.90;;;;;;5241110;28;20715;-48
2023/12/04 00:04:52;;;;;;;44.77;22.63;;;-3.30;99.90;;;;;;5244507;28;20191;-48
2023/12/04 00:07:23;;;;;;;60.70;24.83;;;-3.30;99.90;;;;;;5245779;28;20684;-51
2023/12/04 00:09:53;;;;;;;61.80;27.60;;;-3.30;99.90;;;;;;5244114;28;20624;-48
2023/12/04 00:12:24;;;;;;;66.93;29.40;;;-3.30;99.90;;;;;;5242190;28;20182;-48
2023/12/04 00:14:54;;;;;;;56.43;25.83;;;-3.40;99.90;;;;;;5243948;28;20191;-49
2023/12/04 00:17:25;;;;;;;64.63;29.63;;;-3.40;99.90;;;;;;5260851;28;20190;-49
2023/12/04 00:19:56;;;;;;;65.63;29.87;;;-3.40;99.90;;;;;;5245605;28;20300;-48
2023/12/04 00:22:28;;;;;;;89.17;40.37;;;-3.40;99.90;;;;;;5245650;28;20613;-49
2023/12/04 00:24:59;;;;;;;75.53;35.77;;;-3.40;99.90;;;;;;5235905;28;20916;-48
2023/12/04 00:27:29;;;;;;;64.20;32.33;;;-3.40;99.90;;;;;;5240862;28;20464;-49
2023/12/04 00:30:03;;;;;;;75.27;33.37;;;-3.40;99.90;;;;;;5244827;28;20207;-47
2023/12/04 00:32:34;;;;;;;89.27;36.53;;;-3.50;99.90;;;;;;5244269;28;20185;-49
2023/12/04 00:35:05;;;;;;;81.30;34.87;;;-3.40;99.90;;;;;;5243866;28;20439;-48
2023/12/04 00:37:38;;;;;;;275.47;72.20;;;-3.30;99.90;;;;;;5235600;28;20199;-49
2023/12/04 00:40:09;;;;;;;91.80;33.00;;;-3.40;99.90;;;;;;5245607;28;20568;-51
2023/12/04 00:42:39;;;;;;;99.80;33.50;;;-3.40;99.90;;;;;;5247314;28;20459;-49
2023/12/04 00:45:10;;;;;;;83.77;29.83;;;-3.30;99.90;;;;;;5244167;28;20541;-51
2023/12/04 00:47:41;;;;;;;59.93;25.43;;;-3.40;99.90;;;;;;5245497;28;20298;-48
2023/12/04 00:50:11;;;;;;;60.33;26.63;;;-3.40;99.90;;;;;;5241444;28;20201;-49
2023/12/04 00:52:42;;;;;;;58.90;25.40;;;-3.40;99.90;;;;;;5241750;28;20272;-49
2023/12/04 00:55:13;;;;;;;58.50;25.80;;;-3.40;99.90;;;;;;5242180;28;20241;-49
2023/12/04 00:57:43;;;;;;;58.10;26.57;;;-3.40;99.90;;;;;;5243848;28;20273;-48
2023/12/04 01:00:14;;;;;;;67.70;26.80;;;-3.30;99.90;;;;;;5242962;28;20607;-49
2023/12/04 01:02:45;;;;;;;65.13;26.40;;;-3.20;99.90;;;;;;5245674;28;20645;-49
2023/12/04 01:05:16;;;;;;;62.10;26.93;;;-3.00;99.90;;;;;;5245843;28;20442;-49
2023/12/04 01:07:47;;;;;;;58.87;25.43;;;-3.10;99.90;;;;;;5243032;28;20206;-48
2023/12/04 01:10:17;;;;;;;52.60;25.13;;;-2.90;99.90;;;;;;5241378;28;20464;-48
2023/12/04 01:12:48;;;;;;;54.63;25.53;;;-3.10;99.90;;;;;;5245848;28;20188;-51
2023/12/04 01:15:19;;;;;;;56.10;25.47;;;-3.20;99.90;;;;;;5254389;28;20186;-48
2023/12/04 01:17:49;;;;;;;50.80;25.23;;;-3.30;99.90;;;;;;5244836;28;20612;-49
2023/12/04 01:20:20;;;;;;;52.20;25.80;;;-3.40;99.90;;;;;;5246737;28;20591;-50
2023/12/04 01:22:51;;;;;;;59.17;26.07;;;-3.40;99.90;;;;;;5244611;28;20188;-48
2023/12/04 01:25:21;;;;;;;57.13;25.83;;;-3.40;99.90;;;;;;5243889;28;20187;-49
2023/12/04 01:27:52;;;;;;;56.90;27.33;;;-3.40;99.90;;;;;;5244044;28;20258;-49
2023/12/04 01:30:22;;;;;;;57.47;25.80;;;-3.20;99.90;;;;;;5245427;28;20208;-49
2023/12/04 01:32:53;;;;;;;62.17;26.73;;;-3.10;99.90;;;;;;5247484;28;20270;-49
2023/12/04 01:35:24;;;;;;;60.93;24.03;;;-3.10;99.90;;;;;;5242357;28;20173;-49
2023/12/04 01:37:54;;;;;;;56.80;26.07;;;-3.20;99.90;;;;;;5246122;28;20182;-49
2023/12/04 01:40:26;;;;;;;49.43;24.80;;;-3.30;99.90;;;;;;5245658;28;20582;-48
2023/12/04 01:42:56;;;;;;;57.67;25.97;;;-3.30;99.90;;;;;;5247341;28;20176;-49
2023/12/04 01:45:27;;;;;;;60.57;27.03;;;-3.30;99.90;;;;;;5244809;28;20439;-48
2023/12/04 01:47:58;;;;;;;64.00;26.07;;;-3.40;99.90;;;;;;5245506;28;20280;-50
2023/12/04 01:50:29;;;;;;;50.17;25.57;;;-3.50;99.90;;;;;;5242059;28;20208;-47
2023/12/04 01:53:00;;;;;;;62.20;27.10;;;-3.50;99.90;;;;;;5245915;28;20445;-48
2023/12/04 01:55:32;;;;;;;65.97;25.63;;;-3.50;99.90;;;;;;5243323;28;20185;-49
2023/12/04 01:58:03;;;;;;;62.73;27.37;;;-3.60;99.90;;;;;;5242845;28;20632;-48
2023/12/04 02:00:34;;;;;;;69.87;28.30;;;-3.50;99.90;;;;;;5239279;28;20470;-49
2023/12/04 02:03:06;;;;;;;63.37;26.90;;;-3.50;99.90;;;;;;5243563;28;20194;-49
2023/12/04 02:05:37;;;;;;;58.30;25.03;;;-3.60;99.90;;;;;;5240988;28;20197;-48
2023/12/04 02:08:08;;;;;;;65.73;28.00;;;-3.60;99.90;;;;;;5242726;28;20474;-47
2023/12/04 02:10:39;;;;;;;68.70;27.80;;;-3.60;99.90;;;;;;5242457;28;20464;-48
2023/12/04 02:13:10;;;;;;;55.77;26.07;;;-3.60;99.90;;;;;;5245618;28;20644;-47
2023/12/04 02:15:41;;;;;;;57.50;28.10;;;-3.60;99.90;;;;;;5247052;28;20470;-49
2023/12/04 02:18:12;;;;;;;55.70;25.67;;;-3.50;99.90;;;;;;5245825;28;20831;-47
2023/12/04 02:20:43;;;;;;;65.23;25.83;;;-3.20;99.90;;;;;;5250046;28;20637;-48
2023/12/04 02:23:13;;;;;;;61.83;27.27;;;-3.40;99.90;;;;;;5249777;28;20271;-48
2023/12/04 02:25:44;;;;;;;57.30;25.67;;;-3.50;99.90;;;;;;5248275;28;20497;-48
2023/12/04 02:28:17;;;;;;;58.73;26.40;;;-3.60;99.90;;;;;;5242056;28;20207;-49
2023/12/04 02:30:49;;;;;;;64.90;26.70;;;-3.60;99.90;;;;;;5248852;28;20211;-48
2023/12/04 02:33:23;;;;;;;52.20;23.63;;;-3.30;99.90;;;;;;5235141;28;20430;-47
2023/12/04 02:35:55;;;;;;;53.43;23.03;;;-3.30;99.90;;;;;;5259857;28;20483;-48
2023/12/04 02:38:26;;;;;;;53.97;24.60;;;-3.30;99.90;;;;;;5246978;28;20459;-48
2023/12/04 02:40:57;;;;;;;53.30;25.50;;;-3.40;99.90;;;;;;5249670;28;20464;-48
2023/12/04 02:43:27;;;;;;;54.10;26.53;;;-3.40;99.90;;;;;;5246143;28;20453;-49
2023/12/04 02:45:58;;;;;;;54.00;25.00;;;-3.40;99.90;;;;;;5244929;28;20184;-50
2023/12/04 02:48:29;;;;;;;52.07;25.50;;;-3.40;99.90;;;;;;5248531;28;20206;-49
2023/12/04 02:50:59;;;;;;;62.07;26.50;;;-3.40;99.90;;;;;;5243065;28;20282;-48
2023/12/04 02:53:30;;;;;;;54.10;25.50;;;-3.40;99.90;;;;;;5247857;28;20287;-48
2023/12/04 02:56:01;;;;;;;59.07;25.93;;;-3.20;99.90;;;;;;5249251;28;20188;-48
2023/12/04 02:58:34;;;;;;;55.80;24.40;;;-3.10;99.90;;;;;;5243192;28;20179;-49
2023/12/04 03:01:05;;;;;;;60.70;26.70;;;-3.30;99.90;;;;;;5248144;28;20209;-50
2023/12/04 03:03:35;;;;;;;47.87;24.93;;;-3.30;99.90;;;;;;5246608;28;20447;-50
2023/12/04 03:06:06;;;;;;;56.87;24.03;;;-3.40;99.90;;;;;;5243235;28;20499;-50
2023/12/04 03:08:37;;;;;;;47.33;22.27;;;-3.40;99.90;;;;;;5246054;28;20237;-50
2023/12/04 03:11:08;;;;;;;59.37;26.83;;;-3.40;99.90;;;;;;5246495;28;20471;-50
2023/12/04 03:13:39;;;;;;;64.43;26.80;;;-3.30;99.90;;;;;;5248225;28;20200;-50
2023/12/04 03:16:18;;;;;;;43.83;22.20;;;-3.20;99.90;;;;;;5247800;28;20308;-50
2023/12/04 03:18:49;;;;;;;52.60;24.13;;;-3.40;99.90;;;;;;5244848;28;20218;-50
2023/12/04 03:21:20;;;;;;;50.60;23.67;;;-3.50;99.90;;;;;;5244195;28;20500;-49
2023/12/04 03:23:50;;;;;;;48.53;22.87;;;-3.40;99.90;;;;;;5247328;28;20566;-51
2023/12/04 03:26:21;;;;;;;49.03;24.27;;;-3.50;99.90;;;;;;5241193;28;20216;-50
2023/12/04 03:28:52;;;;;;;53.73;23.90;;;-3.60;99.90;;;;;;5245607;28;20290;-49
2023/12/04 03:31:23;;;;;;;51.63;23.53;;;-3.60;99.90;;;;;;5245321;28;20196;-50
2023/12/04 03:33:54;;;;;;;47.20;22.50;;;-3.60;99.90;;;;;;5248867;28;20713;-48
2023/12/04 03:36:25;;;;;;;54.07;25.50;;;-3.70;99.90;;;;;;5242211;28;20448;-51
2023/12/04 03:38:55;;;;;;;45.97;23.30;;;-3.60;99.90;;;;;;5245330;28;20491;-50
2023/12/04 03:41:26;;;;;;;51.07;23.97;;;-3.60;99.90;;;;;;5246192;28;20207;-50
2023/12/04 03:43:57;;;;;;;45.83;21.50;;;-3.60;99.90;;;;;;5245949;28;20460;-49
2023/12/04 03:46:28;;;;;;;63.00;22.60;;;-3.60;99.90;;;;;;5245521;28;20209;-49
2023/12/04 03:48:59;;;;;;;42.73;22.57;;;-3.70;99.90;;;;;;5250017;28;20684;-49
2023/12/04 03:51:30;;;;;;;45.40;22.40;;;-3.60;99.90;;;;;;5239188;28;20196;-50
2023/12/04 03:54:00;;;;;;;48.03;22.10;;;-3.70;99.90;;;;;;5246863;28;20971;-48
2023/12/04 03:56:31;;;;;;;43.73;22.20;;;-3.70;99.90;;;;;;5246198;28;20187;-51
2023/12/04 03:59:02;;;;;;;51.53;25.57;;;-3.70;99.90;;;;;;5242038;28;20645;-50
2023/12/04 04:01:33;;;;;;;62.37;31.10;;;-3.80;99.90;;;;;;5241643;28;20541;-51
2023/12/04 04:04:04;;;;;;;70.00;31.50;;;-3.70;99.90;;;;;;5242225;28;20490;-49
2023/12/04 04:06:35;;;;;;;46.43;23.13;;;-3.80;99.90;;;;;;5245716;28;20293;-50
2023/12/04 04:09:05;;;;;;;52.70;22.20;;;-3.80;99.90;;;;;;5247186;28;20170;-50
2023/12/04 04:11:36;;;;;;;46.47;21.47;;;-3.70;99.90;;;;;;5243796;28;20285;-49
2023/12/04 04:14:07;;;;;;;47.27;22.50;;;-3.70;99.90;;;;;;5244952;28;20436;-51
2023/12/04 04:16:38;;;;;;;39.07;20.17;;;-3.70;99.90;;;;;;5245151;28;20190;-51
2023/12/04 04:19:08;;;;;;;51.87;23.50;;;-3.60;99.90;;;;;;5242600;28;20184;-50
2023/12/04 04:21:40;;;;;;;41.00;21.63;;;-3.60;99.90;;;;;;5247179;28;20237;-50
2023/12/04 04:24:11;;;;;;;49.80;21.77;;;-3.60;99.90;;;;;;5244285;28;20201;-51
2023/12/04 04:26:42;;;;;;;45.33;20.97;;;-3.70;99.90;;;;;;5245110;28;20968;-49
2023/12/04 04:29:13;;;;;;;46.50;19.67;;;-3.70;99.90;;;;;;5246362;28;20174;-50
2023/12/04 04:31:43;;;;;;;42.43;22.33;;;-3.70;99.90;;;;;;5244966;28;20218;-52
2023/12/04 04:34:14;;;;;;;51.00;22.17;;;-3.80;99.90;;;;;;5242936;28;20421;-50
2023/12/04 04:36:45;;;;;;;44.97;23.13;;;-3.80;99.90;;;;;;5245769;28;20193;-48
2023/12/04 04:39:15;;;;;;;50.87;23.00;;;-3.70;99.90;;;;;;5242379;28;20171;-51
2023/12/04 04:41:46;;;;;;;49.63;22.43;;;-3.70;99.90;;;;;;5240909;28;20202;-51
2023/12/04 04:44:17;;;;;;;43.03;22.13;;;-3.70;99.90;;;;;;5243014;28;20653;-50
2023/12/04 04:46:47;;;;;;;49.80;20.80;;;-3.70;99.90;;;;;;5239418;28;20204;-49
2023/12/04 04:49:18;;;;;;;42.87;21.00;;;-3.60;99.90;;;;;;5244708;28;20180;-50
2023/12/04 04:51:49;;;;;;;42.37;20.67;;;-3.50;99.90;;;;;;5239923;28;20703;-50
2023/12/04 04:54:20;;;;;;;34.73;19.63;;;-3.60;99.90;;;;;;5246080;28;20172;-50
2023/12/04 04:56:51;;;;;;;41.33;21.03;;;-3.70;99.90;;;;;;5241854;28;20206;-51
2023/12/04 04:59:21;;;;;;;41.80;19.77;;;-3.70;99.90;;;;;;5242125;28;20547;-50
2023/12/04 05:01:52;;;;;;;41.33;19.50;;;-3.70;99.90;;;;;;5241605;28;20562;-50
2023/12/04 05:04:23;;;;;;;52.97;21.73;;;-3.70;99.90;;;;;;5246166;28;20524;-51
2023/12/04 05:06:53;;;;;;;37.40;19.30;;;-3.70;99.90;;;;;;5243092;28;20199;-51
2023/12/04 05:09:24;;;;;;;41.70;19.70;;;-3.70;99.90;;;;;;5244900;28;20273;-49
2023/12/04 05:11:55;;;;;;;39.43;19.47;;;-3.70;99.90;;;;;;5242772;28;20197;-51
2023/12/04 05:14:27;;;;;;;41.47;19.73;;;-3.60;99.90;;;;;;5243818;28;20265;-52
2023/12/04 05:16:57;;;;;;;40.30;19.27;;;-3.70;99.90;;;;;;5244234;28;20206;-50
2023/12/04 05:19:28;;;;;;;34.03;18.53;;;-3.70;99.90;;;;;;5243313;28;20455;-50
2023/12/04 05:21:59;;;;;;;37.77;17.80;;;-3.80;99.90;;;;;;5242530;28;20194;-51
2023/12/04 05:24:30;;;;;;;41.17;19.63;;;-3.70;99.90;;;;;;5244995;28;20728;-51
2023/12/04 05:27:00;;;;;;;39.40;18.43;;;-3.70;99.90;;;;;;5239468;28;20211;-51
2023/12/04 05:29:31;;;;;;;42.00;19.93;;;-3.80;99.90;;;;;;5242969;28;20220;-51
2023/12/04 05:32:02;;;;;;;40.07;19.67;;;-3.80;99.90;;;;;;5239922;28;20214;-50
2023/12/04 05:34:33;;;;;;;42.10;19.43;;;-3.80;99.90;;;;;;5241429;28;20183;-50
2023/12/04 05:37:04;;;;;;;36.80;18.20;;;-3.90;99.90;;;;;;5240546;28;20193;-49
2023/12/04 05:39:34;;;;;;;45.33;21.07;;;-3.90;99.90;;;;;;5242914;28;20182;-50
2023/12/04 05:42:05;;;;;;;34.93;17.90;;;-3.90;99.90;;;;;;5243515;28;20227;-51
2023/12/04 05:44:36;;;;;;;42.70;18.90;;;-3.80;99.90;;;;;;5242393;28;20203;-50
2023/12/04 05:47:08;;;;;;;39.00;20.43;;;-3.90;99.90;;;;;;5240687;28;20226;-50
2023/12/04 05:49:38;;;;;;;39.00;19.17;;;-3.90;99.90;;;;;;5237392;28;20248;-49
2023/12/04 05:52:09;;;;;;;35.80;17.60;;;-3.90;99.90;;;;;;5248169;28;20430;-50
2023/12/04 05:54:40;;;;;;;39.83;18.83;;;-3.90;99.90;;;;;;5245733;28;20258;-51
2023/12/04 05:57:11;;;;;;;40.50;20.10;;;-3.90;99.90;;;;;;5248059;28;20270;-50
2023/12/04 05:59:41;;;;;;;38.53;19.43;;;-3.90;99.90;;;;;;5247796;28;20248;-52
2023/12/04 06:02:15;;;;;;;38.87;20.27;;;-3.90;99.90;;;;;;5248008;28;20444;-51
2023/12/04 06:04:45;;;;;;;37.50;19.20;;;-3.90;99.90;;;;;;5248887;28;20201;-49
2023/12/04 06:07:16;;;;;;;46.20;22.03;;;-3.90;99.90;;;;;;5248084;28;20460;-52
2023/12/04 06:09:47;;;;;;;42.63;20.60;;;-3.90;99.90;;;;;;5247593;28;20188;-48
2023/12/04 06:12:18;;;;;;;49.47;22.73;;;-3.80;99.90;;;;;;5244362;28;20447;-49
2023/12/04 06:14:48;;;;;;;51.40;21.70;;;-3.80;99.90;;;;;;5249418;28;20186;-49
2023/12/04 06:17:19;;;;;;;41.60;20.93;;;-3.70;99.90;;;;;;5248098;28;20179;-49
2023/12/04 06:19:50;;;;;;;45.17;21.73;;;-3.70;99.90;;;;;;5261983;28;20261;-48
2023/12/04 06:22:21;;;;;;;43.27;20.87;;;-3.70;99.90;;;;;;5245203;28;20223;-49
2023/12/04 06:24:52;;;;;;;39.40;20.30;;;-3.60;99.90;;;;;;5247635;28;20195;-53
2023/12/04 06:27:23;;;;;;;35.20;19.43;;;-3.50;99.90;;;;;;5245266;28;20467;-50
2023/12/04 06:29:54;;;;;;;41.07;19.67;;;-3.50;99.90;;;;;;5246853;28;20553;-49
2023/12/04 06:32:25;;;;;;;44.53;19.70;;;-3.30;99.90;;;;;;5246688;28;20912;-50
2023/12/04 06:34:56;;;;;;;42.77;19.50;;;-3.40;99.90;;;;;;5245404;28;20796;-49
2023/12/04 06:37:27;;;;;;;48.63;21.23;;;-3.50;99.90;;;;;;5262573;28;20443;-50
2023/12/04 06:40:02;;;;;;;34.93;18.70;;;-3.30;99.90;;;;;;5249453;28;20455;-52
2023/12/04 06:42:33;;;;;;;37.60;19.10;;;-3.20;99.90;;;;;;5245070;28;20484;-49
2023/12/04 06:45:04;;;;;;;35.10;17.90;;;-3.20;99.90;;;;;;5248223;28;21083;-51
2023/12/04 06:47:36;;;;;;;39.47;19.00;;;-3.10;99.90;;;;;;5245312;28;20508;-50
2023/12/04 06:50:07;;;;;;;35.90;18.70;;;-3.10;99.90;;;;;;5239431;28;20462;-49
2023/12/04 06:52:38;;;;;;;31.33;16.57;;;-3.10;99.90;;;;;;5244417;28;20662;-50
2023/12/04 06:55:08;;;;;;;37.10;18.23;;;-3.00;99.90;;;;;;5246443;28;20809;-50
2023/12/04 06:57:39;;;;;;;42.70;20.57;;;-3.00;99.90;;;;;;5231460;28;20283;-49
2023/12/04 07:00:14;;;;;;;41.67;18.33;;;-3.00;99.90;;;;;;5231819;28;20493;-49
2023/12/04 07:02:45;;;;;;;43.00;19.13;;;-3.00;99.90;;;;;;5233029;28;20211;-51
2023/12/04 07:05:16;;;;;;;40.77;18.00;;;-3.00;99.90;;;;;;5240303;28;20539;-49
2023/12/04 07:07:46;;;;;;;39.90;18.63;;;-3.00;99.90;;;;;;5245800;28;20261;-49
2023/12/04 07:10:17;;;;;;;35.20;17.67;;;-3.00;99.90;;;;;;5240780;28;20717;-50
2023/12/04 07:12:48;;;;;;;35.10;18.00;;;-3.00;99.90;;;;;;5245472;28;20219;-50
2023/12/04 07:15:19;;;;;;;35.87;17.50;;;-3.00;99.90;;;;;;5246945;28;20431;-49
2023/12/04 07:17:50;;;;;;;37.07;17.77;;;-2.90;99.90;;;;;;5244012;28;20270;-49
2023/12/04 07:20:23;;;;;;;37.10;18.60;;;-2.90;99.90;;;;;;5246572;28;20210;-49
2023/12/04 07:22:54;;;;;;;33.60;17.67;;;-2.90;99.90;;;;;;5246619;28;20181;-48
2023/12/04 07:25:25;;;;;;;36.27;19.20;;;-2.90;99.90;;;;;;5247177;28;20430;-50
2023/12/04 07:27:57;;;;;;;44.10;20.73;;;-2.90;99.90;;;;;;5245117;28;20206;-49
2023/12/04 07:30:28;;;;;;;41.57;19.60;;;-2.80;99.90;;;;;;5245796;28;20810;-49
2023/12/04 07:32:59;;;;;;;37.77;17.90;;;-2.80;99.90;;;;;;5245981;28;20800;-51
2023/12/04 07:35:30;;;;;;;39.60;18.80;;;-2.70;99.90;;;;;;5244871;28;20943;-49
2023/12/04 07:38:01;;;;;;;34.10;17.70;;;-2.70;99.90;;;;;;5246546;28;20181;-50
2023/12/04 07:40:32;;;;;;;32.20;16.90;;;-2.80;99.90;;;;;;5248463;28;20233;-50
2023/12/04 07:43:02;;;;;;;38.83;18.13;;;-2.70;99.90;;;;;;5249099;28;20189;-48
2023/12/04 07:45:34;;;;;;;33.40;18.07;;;-2.60;99.90;;;;;;5248749;28;20426;-49
2023/12/04 07:48:05;;;;;;;36.83;18.00;;;-2.60;99.90;;;;;;5248457;28;20195;-48
2023/12/04 07:50:37;;;;;;;36.17;18.60;;;-2.70;99.90;;;;;;5248935;28;20519;-48
2023/12/04 07:53:09;;;;;;;36.73;18.33;;;-2.70;99.90;;;;;;5247343;28;20506;-50
2023/12/04 07:55:40;;;;;;;37.10;17.90;;;-2.70;99.90;;;;;;5249276;28;20426;-48
2023/12/04 07:58:11;;;;;;;37.60;18.00;;;-2.70;99.90;;;;;;5247747;28;21013;-49
2023/12/04 08:00:42;;;;;;;38.53;19.60;;;-2.60;99.90;;;;;;5248358;28;20230;-49
2023/12/04 08:03:12;;;;;;;35.23;16.87;;;-2.60;99.90;;;;;;5241453;28;20546;-49
2023/12/04 08:05:43;;;;;;;33.30;17.30;;;-2.60;99.90;;;;;;5239858;28;20690;-48
2023/12/04 08:08:14;;;;;;;33.50;16.97;;;-2.60;99.90;;;;;;5242574;28;20576;-48
2023/12/04 08:10:45;;;;;;;36.90;17.97;;;-2.60;99.90;;;;;;5245722;28;20205;-47
2023/12/04 08:13:16;;;;;;;45.60;18.10;;;-2.50;99.90;;;;;;5255929;28;20429;-50
2023/12/04 08:15:47;;;;;;;37.90;19.37;;;-2.50;99.90;;;;;;5248353;28;20214;-49
2023/12/04 08:18:17;;;;;;;33.33;17.30;;;-2.50;99.90;;;;;;5244859;28;21256;-48
2023/12/04 08:20:48;;;;;;;36.07;17.50;;;-2.40;99.90;;;;;;5246610;28;20205;-48
2023/12/04 08:23:20;;;;;;;37.93;18.20;;;-2.40;99.90;;;;;;5245781;28;20178;-47
2023/12/04 08:25:50;;;;;;;32.70;17.37;;;-2.30;99.90;;;;;;5240372;28;20182;-49
2023/12/04 08:28:21;;;;;;;28.73;16.53;;;-2.20;99.90;;;;;;5243915;28;20481;-47
2023/12/04 08:30:52;;;;;;;31.33;16.77;;;-2.20;99.90;;;;;;5245996;28;20269;-48
2023/12/04 08:33:22;;;;;;;34.50;17.23;;;-2.20;99.90;;;;;;5244464;28;20232;-49
2023/12/04 08:35:53;;;;;;;31.67;17.67;;;-2.10;99.90;;;;;;5244676;28;20181;-48
2023/12/04 08:38:24;;;;;;;26.23;14.27;;;-2.00;99.90;;;;;;5246429;28;20216;-47
2023/12/04 08:40:55;;;;;;;28.23;15.73;;;-2.00;99.90;;;;;;5249431;28;20673;-49
2023/12/04 08:43:25;;;;;;;32.33;17.70;;;-2.00;99.90;;;;;;5246314;28;20954;-49
2023/12/04 08:45:56;;;;;;;42.00;15.90;;;-1.90;99.90;;;;;;5247411;28;20185;-47
2023/12/04 08:48:27;;;;;;;36.70;17.33;;;-1.90;99.90;;;;;;5247279;28;20194;-48
2023/12/04 08:50:58;;;;;;;28.90;15.80;;;-1.80;99.90;;;;;;5246748;28;20196;-49
2023/12/04 08:53:29;;;;;;;38.00;16.40;;;-1.80;99.90;;;;;;5242446;28;20659;-48
2023/12/04 08:55:59;;;;;;;30.67;17.57;;;-1.80;99.90;;;;;;5249517;28;20417;-48
2023/12/04 08:58:30;;;;;;;35.70;17.37;;;-1.70;99.90;;;;;;5249546;28;20186;-49
2023/12/04 09:01:01;;;;;;;38.03;15.90;;;-1.70;99.90;;;;;;5245245;28;20210;-50
2023/12/04 09:03:32;;;;;;;30.07;16.07;;;-1.70;99.90;;;;;;5246827;28;20710;-51
2023/12/04 09:06:03;;;;;;;31.33;16.63;;;-1.70;99.90;;;;;;5241158;28;20186;-49
2023/12/04 09:08:35;;;;;;;29.17;14.70;;;-1.60;99.90;;;;;;5243708;28;20323;-50
2023/12/04 09:11:06;;;;;;;35.50;17.90;;;-1.60;99.90;;;;;;5245577;28;21028;-50
2023/12/04 09:13:37;;;;;;;28.90;16.20;;;-1.70;99.90;;;;;;5244147;28;20445;-51
2023/12/04 09:16:08;;;;;;;28.47;16.07;;;-1.70;99.90;;;;;;5240107;28;20268;-51
2023/12/04 09:18:39;;;;;;;30.57;15.03;;;-1.70;99.90;;;;;;5223724;28;20535;-49
2023/12/04 09:21:10;;;;;;;32.73;17.93;;;-1.50;99.90;;;;;;5243124;28;20483;-50
2023/12/04 09:23:40;;;;;;;26.37;15.37;;;-1.60;99.90;;;;;;5239347;28;20539;-51
2023/12/04 09:26:11;;;;;;;33.23;17.40;;;-1.60;99.90;;;;;;5245395;28;21409;-50
2023/12/04 09:28:42;;;;;;;24.60;15.43;;;-1.60;99.90;;;;;;5244595;28;20208;-52
2023/12/04 09:31:13;;;;;;;29.03;14.37;;;-1.60;99.90;;;;;;5227460;28;20571;-52
2023/12/04 09:33:43;;;;;;;27.53;15.73;;;-1.60;99.90;;;;;;5239554;28;20191;-55
2023/12/04 09:36:14;;;;;;;29.27;14.60;;;-1.60;99.90;;;;;;5245634;28;20496;-51
2023/12/04 09:38:46;;;;;;;28.03;15.43;;;-1.60;99.90;;;;;;5241169;28;20210;-52
2023/12/04 09:41:18;;;;;;;23.77;14.60;;;-1.50;99.90;;;;;;5244510;28;20211;-52
2023/12/04 09:43:50;;;;;;;35.03;16.03;;;-1.50;99.90;;;;;;5245278;28;20460;-51
2023/12/04 09:46:21;;;;;;;27.23;15.20;;;-1.50;99.90;;;;;;5243278;28;20447;-52
2023/12/04 09:48:54;;;;;;;25.23;15.17;;;-1.40;99.90;;;;;;5244879;28;20435;-51
2023/12/04 09:51:26;;;;;;;32.27;15.40;;;-1.40;99.90;;;;;;5244327;28;20455;-50
2023/12/04 09:54:01;;;;;;;27.33;14.10;;;-1.40;99.90;;;;;;5243442;28;20811;-51
2023/12/04 09:56:34;;;;;;;28.33;14.67;;;-1.30;99.90;;;;;;5242216;28;20774;-51
2023/12/04 09:59:07;;;;;;;28.27;15.20;;;-1.30;99.90;;;;;;5244646;28;20440;-51
2023/12/04 10:01:41;;;;;;;22.77;13.43;;;-1.30;99.90;;;;;;5244585;28;20604;-51
2023/12/04 10:04:12;;;;;;;28.13;16.20;;;-1.20;99.90;;;;;;5243062;28;20526;-50
2023/12/04 10:06:45;;;;;;;24.10;13.00;;;-1.00;99.90;;;;;;5244579;28;20475;-51
2023/12/04 10:09:17;;;;;;;25.37;13.30;;;-1.00;99.90;;;;;;5244102;28;20499;-51
2023/12/04 10:11:51;;;;;;;21.67;12.33;;;-1.00;99.90;;;;;;5245815;28;20451;-53
2023/12/04 10:14:22;;;;;;;22.33;12.33;;;-0.90;99.90;;;;;;5247026;28;20404;-51
2023/12/04 10:16:53;;;;;;;21.73;12.20;;;-0.80;99.90;;;;;;5244783;28;20437;-51
2023/12/04 10:19:26;;;;;;;20.30;12.00;;;-0.70;99.90;;;;;;5245817;28;20178;-52
2023/12/04 10:21:59;;;;;;;24.57;12.70;;;-0.60;99.90;;;;;;5243053;28;20658;-51
2023/12/04 10:24:35;;;;;;;17.83;11.60;;;-0.50;99.90;;;;;;5243991;28;20428;-51
2023/12/04 10:27:11;;;;;;;25.43;12.40;;;-0.30;99.90;;;;;;5238621;28;20461;-52
2023/12/04 10:29:47;;;;;;;18.67;11.83;;;-0.30;99.90;;;;;;5241313;28;21016;-52
2023/12/04 10:32:21;;;;;;;17.50;11.87;;;-0.30;99.90;;;;;;5245485;28;20498;-52
2023/12/04 10:34:55;;;;;;;21.43;12.57;;;-0.30;99.90;;;;;;5239920;28;20424;-51
2023/12/04 10:37:28;;;;;;;21.20;13.07;;;0.00;99.90;;;;;;5248295;28;20932;-54
2023/12/04 10:40:00;;;;;;;24.13;13.47;;;0.00;99.90;;;;;;5241204;28;20495;-50
2023/12/04 10:42:30;;;;;;;26.40;13.40;;;0.00;99.90;;;;;;5246829;28;20444;-51
2023/12/04 10:45:01;;;;;;;25.93;13.50;;;-0.10;99.90;;;;;;5242897;28;20446;-51
2023/12/04 10:47:34;;;;;;;23.40;13.30;;;-0.10;99.90;;;;;;5247859;28;20203;-52
2023/12/04 10:50:07;;;;;;;29.97;14.03;;;-0.10;99.90;;;;;;5242495;28;20197;-53
2023/12/04 10:52:40;;;;;;;22.70;12.37;;;-0.10;99.90;;;;;;5248586;28;20795;-54
2023/12/04 10:55:12;;;;;;;25.40;12.73;;;-0.20;99.90;;;;;;5242583;28;20421;-52
2023/12/04 10:57:44;;;;;;;23.63;12.20;;;-0.30;99.90;;;;;;5244720;28;20444;-50
2023/12/04 11:00:16;;;;;;;20.67;11.70;;;-0.40;99.90;;;;;;5243434;28;20995;-52
2023/12/04 11:02:49;;;;;;;18.23;12.30;;;-0.40;99.90;;;;;;5245730;28;20433;-51
2023/12/04 11:05:22;;;;;;;21.87;12.47;;;-0.40;99.90;;;;;;5248977;28;20936;-51
2023/12/04 11:07:59;;;;;;;18.87;10.47;;;-0.40;99.90;;;;;;5247968;28;20457;-50
2023/12/04 11:10:31;;;;;;;20.83;12.93;;;-0.40;99.90;;;;;;5245286;28;20460;-51
2023/12/04 11:13:18;;;;;;;25.30;13.03;;;-0.30;99.90;;;;;;5247523;28;20432;-50
2023/12/04 11:15:52;;;;;;;19.13;11.57;;;-0.40;99.90;;;;;;5241608;28;20437;-51
2023/12/04 11:18:24;;;;;;;21.47;11.80;;;-0.40;99.90;;;;;;5246253;28;20429;-50
2023/12/04 11:20:59;;;;;;;18.47;11.47;;;-0.40;99.90;;;;;;5246780;28;20526;-52
2023/12/04 11:23:31;;;;;;;17.73;10.30;;;-0.40;99.90;;;;;;5246517;28;20443;-50
2023/12/04 11:26:04;;;;;;;18.90;10.83;;;-0.40;99.90;;;;;;5248347;28;20948;-52
2023/12/04 11:28:38;;;;;;;21.23;11.63;;;-0.40;99.90;;;;;;5242302;28;20469;-52
2023/12/04 11:31:09;;;;;;;21.90;11.70;;;-0.40;99.90;;;;;;5246943;28;20484;-52
2023/12/04 11:33:40;;;;;;;24.57;14.13;;;-0.40;99.90;;;;;;5245823;28;20497;-52
2023/12/04 11:36:15;;;;;;;20.77;11.63;;;-0.30;99.90;;;;;;5245055;28;20788;-51
2023/12/04 11:38:48;;;;;;;19.23;11.43;;;-0.30;99.90;;;;;;5247787;28;20554;-51
2023/12/04 11:41:20;;;;;;;18.73;11.50;;;-0.30;99.90;;;;;;5240654;28;20452;-50
2023/12/04 11:43:52;;;;;;;21.20;11.70;;;-0.30;99.90;;;;;;5245605;28;20425;-51
2023/12/04 11:46:25;;;;;;;16.00;10.63;;;-0.20;99.90;;;;;;5246867;28;20866;-51
2023/12/04 11:49:16;;;;;;;17.50;10.40;;;-0.20;99.90;;;;;;5246570;28;20440;-53
2023/12/04 11:51:48;;;;;;;23.27;11.67;;;-0.20;99.90;;;;;;5245446;28;20456;-52
2023/12/04 11:54:23;;;;;;;22.13;11.80;;;-0.20;99.90;;;;;;5246006;28;20448;-51
2023/12/04 11:57:20;;;;;;;19.90;11.43;;;-0.20;99.90;;;;;;5246154;28;20420;-51
2023/12/04 12:00:03;;;;;;;13.70;9.83;;;-0.10;99.90;;;;;;5239590;28;20559;-49
2023/12/04 12:02:34;;;;;;;20.10;10.90;;;-0.10;99.90;;;;;;5244827;28;20433;-53
2023/12/04 12:05:05;;;;;;;19.23;11.63;;;-0.10;99.90;;;;;;5245942;28;20441;-52
2023/12/04 12:07:36;;;;;;;19.33;10.63;;;-0.10;99.90;;;;;;5246213;28;20701;-52
2023/12/04 12:10:07;;;;;;;15.93;10.70;;;0.00;99.90;;;;;;5244214;28;20455;-53
2023/12/04 12:12:42;;;;;;;19.73;10.73;;;0.00;99.90;;;;;;5246063;28;20175;-52
2023/12/04 12:15:13;;;;;;;18.37;10.80;;;0.20;99.90;;;;;;5240720;28;20920;-51
2023/12/04 12:17:44;;;;;;;19.27;10.17;;;0.10;99.90;;;;;;5247433;28;21029;-51
2023/12/04 12:20:15;;;;;;;20.67;12.07;;;0.00;99.90;;;;;;5245623;28;20457;-51
2023/12/04 12:22:47;;;;;;;15.00;10.57;;;0.00;99.90;;;;;;5246620;28;20185;-51
2023/12/04 12:25:19;;;;;;;19.30;11.40;;;-0.20;99.90;;;;;;5242909;28;20807;-52
2023/12/04 12:27:51;;;;;;;17.13;10.33;;;-0.20;99.90;;;;;;5246667;28;20610;-50
2023/12/04 12:30:23;;;;;;;18.00;11.07;;;-0.20;99.90;;;;;;5241389;28;20464;-51
2023/12/04 12:32:53;;;;;;;21.80;11.30;;;-0.20;99.90;;;;;;5247424;28;20424;-50
2023/12/04 12:35:25;;;;;;;18.60;10.87;;;-0.20;99.90;;;;;;5247628;28;20901;-51
2023/12/04 12:37:56;;;;;;;18.83;11.73;;;-0.20;99.90;;;;;;5237875;28;20222;-52
2023/12/04 12:40:29;;;;;;;21.60;10.90;;;-0.20;99.90;;;;;;5243903;28;20503;-51
2023/12/04 12:43:08;;;;;;;19.60;10.70;;;-0.20;99.90;;;;;;5246189;28;20182;-50
2023/12/04 12:45:49;;;;;;;16.40;10.10;;;-0.20;99.90;;;;;;5241557;28;20459;-52
2023/12/04 12:48:20;;;;;;;17.43;11.00;;;-0.10;99.90;;;;;;5246165;28;20468;-52
2023/12/04 12:50:51;;;;;;;15.77;10.37;;;0.00;99.90;;;;;;5246275;28;21004;-52